North River — WYR2549 — position and weather

sailwx.info

Track history (hours):
 
Tides and Currents Weather Stations Pressure Air Temp Water Temp Dewpoint Dewpoint Depression Visibility Wind Speed Wind Dir Waves Ship Positions

North River

Owner: CITY OF NEW YORK, Brooklyn, NY. More information available from US FCC via Universal Licensing System and Coast Guard Vessel Documentation Center.

Last reported at 2017-Feb-19 20:21 UTC. Time now 2017-Feb-21 07:58 UTC.
Position N 40°47' W 073°53'.

Length 78 m.

Type: Tanker. MMSI: 367074110.

Date/timePositionNaut miles runAvg speedWind from/ knotsBaromVisibWave heightAir tempDewpointWater temp
2017-Feb-19 20:21N 40°47' W 073°53'1 1.5
2017-Feb-19 19:33N 40°48' W 073°53'0 0.0
2017-Feb-19 18:17N 40°48' W 073°53'5 6.7
2017-Feb-19 17:33N 40°45' W 073°58'5 4.6
2017-Feb-19 16:33N 40°50' W 073°58'0 0.1
2017-Feb-19 15:33N 40°49' W 073°58'0 0.4
2017-Feb-19 14:33N 40°49' W 073°58'5 5.2
2017-Feb-19 13:33N 40°44' W 073°58'5 4.5
2017-Feb-19 12:33N 40°47' W 073°54'0 0.0
2017-Feb-18 22:05N 40°47' W 073°54'4 7.1
2017-Feb-18 21:33N 40°45' W 073°58'1010.1
2017-Feb-18 20:34N 40°38' W 074°08'0 0.0
2017-Feb-18 19:34N 40°38' W 074°08'0 0.0
2017-Feb-18 18:34N 40°38' W 074°08'4 4.3
2017-Feb-18 17:33N 40°41' W 074°03'10 9.8
2017-Feb-18 16:33N 40°49' W 073°58'0 0.0
2017-Feb-18 15:33N 40°49' W 073°58'2 2.1
2017-Feb-18 14:34N 40°48' W 073°59'2 2.3
2017-Feb-18 13:33N 40°46' W 073°57'2 2.5
2017-Feb-18 12:33N 40°47' W 073°54'0 0.0
2017-Feb-18 11:33N 40°47' W 073°54'0 0.0
2017-Feb-16 18:20N 40°47' W 073°54'1 1.5
2017-Feb-16 17:33N 40°48' W 073°53'0 0.0
2017-Feb-16 16:33N 40°48' W 073°53'2 2.1
2017-Feb-16 15:33N 40°48' W 073°50'0 0.0
2017-Feb-16 14:33N 40°48' W 073°50'3 2.6
2017-Feb-16 13:32N 40°47' W 073°54'0 0.0
2017-Feb-16 12:33N 40°47' W 073°54'  
2017-Feb-11 22:09N 40°47' W 073°54'3 5.8
2017-Feb-11 21:33N 40°45' W 073°58'1010.2
2017-Feb-11 20:33N 40°38' W 074°08'0 0.0
2017-Feb-11 19:33N 40°38' W 074°08'0 0.0
2017-Feb-11 18:33N 40°38' W 074°08'5 4.7
2017-Feb-11 17:34N 40°41' W 074°02'9 9.3
2017-Feb-11 16:34N 40°50' W 073°58'0 0.0
2017-Feb-11 15:34N 40°50' W 073°58'4 4.2
2017-Feb-11 14:33N 40°46' W 074°00'4 4.3
2017-Feb-11 13:33N 40°47' W 073°55'1 1.2
2017-Feb-11 12:33N 40°47' W 073°54'0 0.0
2017-Feb-10 19:31N 40°47' W 073°54'1 1.0
2017-Feb-10 18:20N 40°48' W 073°53'1 0.4
2017-Feb-10 16:32N 40°48' W 073°52'1 1.4
2017-Feb-10 15:30N 40°48' W 073°50'0 0.0
2017-Feb-10 14:33N 40°48' W 073°50'3 2.6
2017-Feb-10 13:32N 40°47' W 073°54'0 0.0
2017-Feb-10 12:33N 40°47' W 073°54'  
Track history (hours):
 
Tides and Currents Weather Stations Pressure Air Temp Water Temp Dewpoint Dewpoint Depression Visibility Wind Speed Wind Dir Waves Ship Positions

North River

Owner: CITY OF NEW YORK, Brooklyn, NY. More information available from US FCC via Universal Licensing System and Coast Guard Vessel Documentation Center.

Last reported at 2017-Feb-19 20:21 UTC. Time now 2017-Feb-21 07:58 UTC.
Position N 40°47' W 073°53'.

Length 78 m.

Type: Tanker. MMSI: 367074110.

Date/timePositionNaut miles runAvg speedWind from/ knotsBaromVisibWave heightAir tempDewpointWater temp
2017-Feb-19 20:21N 40°47' W 073°53'1 1.5
2017-Feb-19 19:33N 40°48' W 073°53'0 0.0
2017-Feb-19 18:17N 40°48' W 073°53'5 6.7
2017-Feb-19 17:33N 40°45' W 073°58'5 4.6
2017-Feb-19 16:33N 40°50' W 073°58'0 0.1
2017-Feb-19 15:33N 40°49' W 073°58'0 0.4
2017-Feb-19 14:33N 40°49' W 073°58'5 5.2
2017-Feb-19 13:33N 40°44' W 073°58'5 4.5
2017-Feb-19 12:33N 40°47' W 073°54'0 0.0
2017-Feb-18 22:05N 40°47' W 073°54'4 7.1
2017-Feb-18 21:33N 40°45' W 073°58'1010.1
2017-Feb-18 20:34N 40°38' W 074°08'0 0.0
2017-Feb-18 19:34N 40°38' W 074°08'0 0.0
2017-Feb-18 18:34N 40°38' W 074°08'4 4.3
2017-Feb-18 17:33N 40°41' W 074°03'10 9.8
2017-Feb-18 16:33N 40°49' W 073°58'0 0.0
2017-Feb-18 15:33N 40°49' W 073°58'2 2.1
2017-Feb-18 14:34N 40°48' W 073°59'2 2.3
2017-Feb-18 13:33N 40°46' W 073°57'2 2.5
2017-Feb-18 12:33N 40°47' W 073°54'0 0.0
2017-Feb-18 11:33N 40°47' W 073°54'0 0.0
2017-Feb-16 18:20N 40°47' W 073°54'1 1.5
2017-Feb-16 17:33N 40°48' W 073°53'0 0.0
2017-Feb-16 16:33N 40°48' W 073°53'2 2.1
2017-Feb-16 15:33N 40°48' W 073°50'0 0.0
2017-Feb-16 14:33N 40°48' W 073°50'3 2.6
2017-Feb-16 13:32N 40°47' W 073°54'0 0.0
2017-Feb-16 12:33N 40°47' W 073°54'  
2017-Feb-11 22:09N 40°47' W 073°54'3 5.8
2017-Feb-11 21:33N 40°45' W 073°58'1010.2
2017-Feb-11 20:33N 40°38' W 074°08'0 0.0
2017-Feb-11 19:33N 40°38' W 074°08'0 0.0
2017-Feb-11 18:33N 40°38' W 074°08'5 4.7
2017-Feb-11 17:34N 40°41' W 074°02'9 9.3
2017-Feb-11 16:34N 40°50' W 073°58'0 0.0
2017-Feb-11 15:34N 40°50' W 073°58'4 4.2
2017-Feb-11 14:33N 40°46' W 074°00'4 4.3
2017-Feb-11 13:33N 40°47' W 073°55'1 1.2
2017-Feb-11 12:33N 40°47' W 073°54'0 0.0
2017-Feb-10 19:31N 40°47' W 073°54'1 1.0
2017-Feb-10 18:20N 40°48' W 073°53'1 0.4
2017-Feb-10 16:32N 40°48' W 073°52'1 1.4
2017-Feb-10 15:30N 40°48' W 073°50'0 0.0
2017-Feb-10 14:33N 40°48' W 073°50'3 2.6
2017-Feb-10 13:32N 40°47' W 073°54'0 0.0
2017-Feb-10 12:33N 40°47' W 073°54'  

Dump ship's entire track history